createdAt,value
2018-10-05T12:10:18.426Z,71584.00
2018-10-05T12:11:18.410Z,76128.00
2018-10-05T12:12:18.382Z,76576.00
2018-10-05T12:13:18.367Z,78464.00
2018-10-05T12:14:18.354Z,82208.00
2018-10-05T12:15:18.348Z,77568.00
2018-10-05T12:16:18.327Z,75008.00
2018-10-05T12:17:18.311Z,74624.00
2018-10-05T12:18:18.297Z,73504.00
2018-10-05T12:19:18.283Z,68064.00
2018-10-05T12:20:18.282Z,68768.00
2018-10-05T12:21:18.253Z,70880.00
2018-10-05T12:22:18.241Z,68704.00
2018-10-05T12:23:18.228Z,66240.00
2018-10-05T12:24:18.223Z,74016.00
2018-10-05T12:25:18.217Z,72800.00
2018-10-05T12:26:18.201Z,66784.00
2018-10-05T12:27:18.179Z,66272.00
2018-10-05T12:28:18.166Z,68640.00
2018-10-05T12:29:18.152Z,70848.00
2018-10-05T12:30:18.143Z,71296.00
2018-10-05T12:31:18.140Z,67584.00
2018-10-05T12:32:18.117Z,67168.00
2018-10-05T12:33:18.171Z,66560.00
2018-10-05T12:34:18.099Z,64000.00
2018-10-05T12:35:18.114Z,65152.00
2018-10-05T12:36:19.039Z,65344.00
2018-10-05T12:37:18.104Z,65856.00
2018-10-05T12:38:18.049Z,63456.00
2018-10-05T12:39:18.037Z,60352.00
2018-10-05T12:40:18.027Z,64832.00
2018-10-05T12:41:18.041Z,69632.00
2018-10-05T12:42:18.004Z,69312.00
2018-10-05T12:43:17.997Z,70048.00
2018-10-05T12:44:18.012Z,73280.00
2018-10-05T12:45:19.052Z,72736.00
2018-10-05T12:46:18.003Z,70976.00
2018-10-05T12:47:17.965Z,69984.00
2018-10-05T12:48:17.957Z,67392.00
2018-10-05T12:49:17.932Z,67680.00
2018-10-05T12:50:17.921Z,67136.00
2018-10-05T12:51:17.914Z,62656.00
2018-10-05T12:52:17.911Z,65632.00
2018-10-05T12:53:17.891Z,64864.00
2018-10-05T12:54:18.516Z,64448.00
2018-10-05T12:55:17.870Z,66848.00
2018-10-05T12:56:17.861Z,69024.00
2018-10-05T12:57:17.861Z,70528.00
2018-10-05T12:58:17.874Z,71968.00
2018-10-05T12:59:17.834Z,69760.00
2018-10-05T13:00:17.822Z,63008.00
2018-10-05T13:01:17.812Z,54240.00
2018-10-05T13:02:17.825Z,64672.00
2018-10-05T13:03:17.799Z,72096.00
2018-10-05T13:04:17.785Z,64224.00
2018-10-05T13:05:17.853Z,54112.00
2018-10-05T13:06:17.780Z,52768.00
2018-10-05T13:07:17.765Z,59520.00
2018-10-05T13:08:17.769Z,62880.00
2018-10-05T13:09:17.732Z,66432.00
2018-10-05T13:10:17.729Z,62784.00
2018-10-05T13:11:17.717Z,63712.00
2018-10-05T13:12:17.707Z,68288.00
2018-10-05T13:13:17.711Z,65408.00
2018-10-05T13:14:17.690Z,66592.00
2018-10-05T13:15:17.728Z,71456.00
2018-10-05T13:16:17.674Z,70240.00
2018-10-05T13:17:17.678Z,64320.00
2018-10-05T13:18:17.718Z,62176.00
2018-10-05T13:19:18.528Z,68160.00
2018-10-05T13:20:17.722Z,71040.00
2018-10-05T13:21:17.624Z,56832.00
2018-10-05T13:22:17.630Z,63072.00
2018-10-05T13:23:17.608Z,67200.00
2018-10-05T13:24:17.596Z,66464.00
2018-10-05T13:25:17.590Z,53024.00
2018-10-05T13:26:17.624Z,66720.00
2018-10-05T13:27:17.573Z,65376.00
2018-10-05T13:28:17.573Z,65472.00
2018-10-05T13:29:17.551Z,57888.00
2018-10-05T13:30:17.576Z,46560.00
2018-10-05T13:31:18.074Z,51456.00
2018-10-05T13:32:17.526Z,55808.00
2018-10-05T13:33:17.525Z,55104.00
2018-10-05T13:34:17.508Z,43648.00
2018-10-05T13:35:17.499Z,35456.00
2018-10-05T13:36:17.488Z,38400.00
2018-10-05T13:37:17.537Z,32384.00
2018-10-05T13:38:17.486Z,34720.00
2018-10-05T13:39:17.467Z,33888.00
2018-10-05T13:40:17.457Z,31200.00
2018-10-05T13:41:17.445Z,27744.00
2018-10-05T13:42:17.440Z,27680.00
2018-10-05T13:43:17.428Z,28480.00
2018-10-05T13:44:17.429Z,26688.00
2018-10-05T13:45:17.409Z,24960.00
2018-10-05T13:46:17.400Z,24864.00
2018-10-05T13:47:17.394Z,25536.00
2018-10-05T13:48:17.380Z,20896.00
2018-10-05T13:49:17.393Z,29792.00
2018-10-05T13:50:17.368Z,39392.00
2018-10-05T13:51:17.370Z,44032.00
2018-10-05T13:52:17.348Z,43840.00
2018-10-05T13:53:17.353Z,41696.00
2018-10-05T13:54:17.358Z,38976.00
2018-10-05T13:55:17.326Z,31680.00
2018-10-05T13:56:17.315Z,28736.00
2018-10-05T13:57:17.309Z,30304.00
2018-10-05T13:58:17.308Z,24576.00
2018-10-05T13:59:17.309Z,12284.00
2018-10-05T14:00:17.283Z,11400.00
2018-10-05T14:01:17.283Z,24032.00
2018-10-05T14:02:17.309Z,29024.00
2018-10-05T14:03:17.260Z,18176.00
2018-10-05T14:04:17.251Z,8580.00
2018-10-05T14:05:17.253Z,20032.00
2018-10-05T14:06:17.236Z,38592.00
2018-10-05T14:07:17.231Z,38560.00
2018-10-05T14:08:17.218Z,40000.00
2018-10-05T14:09:17.214Z,45120.00
2018-10-05T14:10:17.211Z,37536.00
2018-10-05T14:11:17.193Z,48832.00
2018-10-05T14:12:17.188Z,52352.00
2018-10-05T14:13:17.177Z,54208.00
2018-10-05T14:14:17.168Z,50592.00
2018-10-05T14:15:17.176Z,50080.00
2018-10-05T14:16:17.151Z,49056.00
2018-10-05T14:17:17.144Z,48288.00
2018-10-05T14:18:17.135Z,50016.00
2018-10-05T14:19:17.174Z,46848.00
2018-10-05T14:20:17.127Z,49600.00
2018-10-05T14:21:17.123Z,51648.00
2018-10-05T14:22:17.105Z,51104.00
2018-10-05T14:23:17.098Z,48512.00
2018-10-05T14:24:17.088Z,45472.00
2018-10-05T14:25:18.095Z,44224.00
2018-10-05T14:26:17.084Z,41792.00
2018-10-05T14:27:17.089Z,39488.00
2018-10-05T14:28:17.060Z,43776.00
2018-10-05T14:29:17.053Z,45792.00
2018-10-05T14:30:17.045Z,46048.00
2018-10-05T14:31:17.047Z,47360.00
2018-10-05T14:32:17.032Z,47936.00
2018-10-05T14:33:17.025Z,47872.00
2018-10-05T14:34:17.015Z,45248.00
2018-10-05T14:35:17.009Z,31104.00
2018-10-05T14:36:17.015Z,14544.00
2018-10-05T14:37:16.999Z,8088.00
2018-10-05T14:38:16.985Z,6740.00
2018-10-05T14:39:16.980Z,6332.00
2018-10-05T14:40:16.969Z,6200.00
2018-10-05T14:41:16.970Z,6168.00
2018-10-05T14:42:16.956Z,6132.00
2018-10-05T14:43:16.958Z,6100.00
2018-10-05T14:44:16.938Z,6080.00
2018-10-05T14:45:16.928Z,6056.00
2018-10-05T14:46:16.935Z,5824.00
2018-10-05T14:47:16.911Z,5728.00
2018-10-05T14:48:16.901Z,5724.00
2018-10-05T14:49:16.895Z,5848.00
2018-10-05T14:50:16.883Z,5832.00
2018-10-05T14:51:16.872Z,5692.00
2018-10-05T14:52:16.874Z,5716.00
2018-10-05T14:53:16.854Z,5728.00
2018-10-05T14:54:16.842Z,5752.00
2018-10-05T14:55:16.834Z,5768.00
2018-10-05T14:56:16.821Z,5744.00
2018-10-05T14:57:16.883Z,5740.00
2018-10-05T14:58:16.801Z,5756.00
2018-10-05T14:59:16.791Z,5756.00
2018-10-05T15:00:16.780Z,5764.00
2018-10-05T15:01:16.769Z,5760.00
2018-10-05T15:02:16.767Z,5764.00
2018-10-05T15:03:16.747Z,5772.00
2018-10-05T15:04:16.737Z,5772.00
2018-10-05T15:05:16.725Z,5776.00
2018-10-05T15:06:16.715Z,5752.00
2018-10-05T15:07:16.717Z,5740.00
2018-10-05T15:08:16.692Z,5704.00
2018-10-05T15:09:16.680Z,5652.00
2018-10-05T15:10:16.668Z,5592.00
2018-10-05T15:11:16.658Z,5492.00
2018-10-05T15:12:16.653Z,5460.00
2018-10-05T15:13:16.664Z,5384.00
2018-10-05T15:14:16.624Z,5328.00
2018-10-05T15:15:16.611Z,5272.00
2018-10-05T15:16:16.606Z,5228.00
2018-10-05T15:17:16.619Z,5188.00
2018-10-05T15:18:16.577Z,5144.00
2018-10-05T15:19:16.562Z,5096.00
2018-10-05T15:20:16.551Z,5056.00
2018-10-05T15:21:16.562Z,5012.00
2018-10-05T15:22:16.528Z,4960.00
2018-10-05T15:23:16.524Z,4912.00
2018-10-05T15:24:16.503Z,4864.00
2018-10-05T15:25:16.493Z,4808.00
2018-10-05T15:26:16.479Z,4768.00
2018-10-05T15:27:16.469Z,4720.00
2018-10-05T15:28:16.465Z,4664.00
2018-10-05T15:29:16.443Z,4616.00
2018-10-05T15:30:16.428Z,4568.00
2018-10-05T15:31:16.423Z,4516.00
2018-10-05T15:32:16.404Z,4464.00
2018-10-05T15:33:16.405Z,4416.00
2018-10-05T15:34:16.380Z,4368.00
2018-10-05T15:35:16.367Z,4316.00
2018-10-05T15:36:16.354Z,4264.00
2018-10-05T15:37:16.342Z,4224.00
2018-10-05T15:38:16.329Z,4180.00
2018-10-05T15:39:16.327Z,4144.00
2018-10-05T15:40:16.303Z,4108.00
2018-10-05T15:41:16.293Z,4076.00
2018-10-05T15:42:16.279Z,4032.00
2018-10-05T15:43:16.267Z,3996.00
2018-10-05T15:44:16.262Z,3964.00
2018-10-05T15:45:16.241Z,3928.00
2018-10-05T15:46:16.228Z,3896.00
2018-10-05T15:47:16.216Z,3860.00
2018-10-05T15:48:16.203Z,3820.00
2018-10-05T15:49:16.205Z,3784.00
2018-10-05T15:50:16.177Z,3744.00
2018-10-05T15:51:16.164Z,3712.00
2018-10-05T15:52:16.150Z,3676.00
2018-10-05T15:53:16.140Z,3644.00
2018-10-05T15:54:16.125Z,3604.00
2018-10-05T15:55:16.122Z,3572.00
2018-10-05T15:56:16.100Z,3536.00
2018-10-05T15:57:16.086Z,3500.00
2018-10-05T15:58:16.070Z,3464.00
2018-10-05T15:59:16.063Z,3428.00
2018-10-05T16:00:16.056Z,3392.00
2018-10-05T16:01:16.035Z,3356.00
2018-10-05T16:02:16.022Z,3312.00
2018-10-05T16:03:16.007Z,3268.00
2018-10-05T16:04:15.993Z,3220.00
2018-10-05T16:05:16.106Z,3176.00
2018-10-05T16:06:15.971Z,3132.00
2018-10-05T16:07:15.957Z,3084.00
2018-10-05T16:08:15.939Z,3036.00
2018-10-05T16:09:15.930Z,2980.00
2018-10-05T16:10:15.930Z,2924.00
2018-10-05T16:11:15.905Z,2864.00
2018-10-05T16:12:15.952Z,2808.00
2018-10-05T16:13:15.876Z,2744.00
2018-10-05T16:14:15.861Z,2684.00
2018-10-05T16:15:15.849Z,2620.00
2018-10-05T16:16:15.846Z,2552.00
2018-10-05T16:17:15.829Z,2488.00
2018-10-05T16:18:15.882Z,2428.00
2018-10-05T16:19:15.796Z,2368.00
2018-10-05T16:20:15.779Z,2308.00
2018-10-05T16:21:15.773Z,2248.00
2018-10-05T16:22:15.763Z,2192.00
2018-10-05T16:23:15.758Z,2136.00
2018-10-05T16:24:15.725Z,2084.00
2018-10-05T16:25:15.712Z,2032.00
2018-10-05T16:26:15.708Z,1984.00
2018-10-05T16:27:15.684Z,1928.00
2018-10-05T16:28:15.671Z,1880.00
2018-10-05T16:29:15.656Z,1820.00
2018-10-05T16:30:15.643Z,1772.00
2018-10-05T16:31:15.839Z,1716.00
2018-10-05T16:32:15.615Z,1664.00
2018-10-05T16:33:15.601Z,1604.00
2018-10-05T16:34:15.589Z,1548.00
2018-10-05T16:35:15.574Z,1488.00
2018-10-05T16:36:15.567Z,1436.00
2018-10-05T16:37:15.640Z,1380.00
2018-10-05T16:38:15.537Z,1324.00
2018-10-05T16:39:15.519Z,1272.00
2018-10-05T16:40:15.504Z,1220.00
2018-10-05T16:41:15.501Z,1172.00
2018-10-05T16:42:15.475Z,1116.00
2018-10-05T16:43:15.467Z,1068.00
2018-10-05T16:44:15.450Z,1020.00
2018-10-05T16:45:15.433Z,968.00
2018-10-05T16:46:15.435Z,924.00
2018-10-05T16:47:15.406Z,868.00
2018-10-05T16:48:15.393Z,820.00
2018-10-05T16:49:15.381Z,776.00
2018-10-05T16:50:15.363Z,724.00
2018-10-05T16:51:15.363Z,680.00
2018-10-05T16:52:15.332Z,636.00
2018-10-05T16:53:15.318Z,592.00
2018-10-05T16:54:15.305Z,552.00
2018-10-05T16:55:15.292Z,512.00
2018-10-05T16:56:15.293Z,476.00
2018-10-05T16:57:15.265Z,440.00
2018-10-05T16:58:15.250Z,404.00
2018-10-05T16:59:15.234Z,372.00
2018-10-05T17:00:15.219Z,340.00
2018-10-05T17:01:15.205Z,308.00
2018-10-05T17:02:15.199Z,280.00
2018-10-05T17:03:15.175Z,252.00
2018-10-05T17:04:15.162Z,224.00
2018-10-05T17:05:15.147Z,204.00
2018-10-05T17:06:15.129Z,180.00
2018-10-05T17:07:15.125Z,160.00
2018-10-05T17:08:15.101Z,144.00
2018-10-05T17:09:15.088Z,124.00
2018-10-05T17:10:15.072Z,108.00
2018-10-05T17:11:15.057Z,92.00
2018-10-05T17:12:15.050Z,80.00
2018-10-05T17:13:15.030Z,72.00
2018-10-05T17:14:15.012Z,64.00
2018-10-05T17:15:14.998Z,56.00
2018-10-05T17:16:14.982Z,44.00
2018-10-05T17:17:14.982Z,40.00
2018-10-05T17:18:14.953Z,32.00
2018-10-05T17:19:14.940Z,28.00
2018-10-05T17:20:14.922Z,24.00
2018-10-05T17:21:14.908Z,20.00
2018-10-05T17:22:14.906Z,12.00
2018-10-05T17:23:14.877Z,12.00
2018-10-05T17:24:14.863Z,12.00
2018-10-05T17:25:14.848Z,8.00
2018-10-05T17:26:14.833Z,8.00
2018-10-05T17:27:14.823Z,4.00
2018-10-05T17:28:14.816Z,4.00
2018-10-05T17:29:14.818Z,4.00
2018-10-05T17:30:14.772Z,0.00
2018-10-05T17:31:14.756Z,4.00
2018-10-05T17:32:14.741Z,4.00
2018-10-05T17:33:14.787Z,0.00
2018-10-05T17:34:14.718Z,0.00
2018-10-05T17:35:14.771Z,0.00
2018-10-05T17:36:14.679Z,0.00
2018-10-05T17:37:14.665Z,0.00
2018-10-05T17:38:14.647Z,0.00
2018-10-05T17:39:14.644Z,0.00
2018-10-05T17:40:14.617Z,0.00
2018-10-05T17:41:14.602Z,0.00
2018-10-05T17:42:14.586Z,0.00
2018-10-05T17:43:14.585Z,0.00
2018-10-05T17:44:14.555Z,0.00
2018-10-05T17:45:14.563Z,0.00
2018-10-05T17:46:14.527Z,0.00
2018-10-05T17:47:14.512Z,0.00
2018-10-05T17:48:14.493Z,0.00
2018-10-05T17:49:14.493Z,0.00
2018-10-05T17:50:14.473Z,0.00
2018-10-05T17:51:14.448Z,0.00
2018-10-05T17:52:14.430Z,0.00
2018-10-05T17:53:14.414Z,0.00
2018-10-05T17:54:14.409Z,0.00
2018-10-05T17:55:14.460Z,0.00
2018-10-05T17:56:14.367Z,0.00
2018-10-05T17:57:14.351Z,0.00
2018-10-05T17:58:14.337Z,0.00
2018-10-05T17:59:14.330Z,0.00
2018-10-05T18:00:14.303Z,0.00
2018-10-05T18:01:14.288Z,0.00
2018-10-05T18:02:14.272Z,0.00
2018-10-05T18:03:14.257Z,0.00
2018-10-05T18:04:14.251Z,0.00
2018-10-05T18:05:14.222Z,0.00
2018-10-05T18:06:14.207Z,0.00
2018-10-05T18:07:14.194Z,0.00
2018-10-05T18:08:14.199Z,0.00
2018-10-05T18:09:14.169Z,0.00
2018-10-05T18:10:14.144Z,0.00
2018-10-05T18:11:14.130Z,0.00
2018-10-05T18:12:14.114Z,0.00
2018-10-05T18:13:14.096Z,0.00
2018-10-05T18:14:14.110Z,0.00
2018-10-05T18:15:14.064Z,0.00
2018-10-05T18:16:16.683Z,0.00
2018-10-05T18:17:14.045Z,0.00
2018-10-05T18:18:14.014Z,0.00
2018-10-05T18:19:13.999Z,0.00
2018-10-05T18:20:14.000Z,0.00
2018-10-05T18:21:13.966Z,0.00
2018-10-05T18:22:13.949Z,0.00
2018-10-05T18:23:13.933Z,0.00
2018-10-05T18:24:13.916Z,0.00
2018-10-05T18:25:13.910Z,0.00
2018-10-05T18:26:13.952Z,0.00
2018-10-05T18:27:13.869Z,0.00
2018-10-05T18:28:13.853Z,0.00
2018-10-05T18:29:13.834Z,0.00
2018-10-05T18:30:13.832Z,0.00
2018-10-05T18:31:13.802Z,0.00
2018-10-05T18:32:13.785Z,0.00
2018-10-05T18:33:13.768Z,0.00
2018-10-05T18:34:13.790Z,0.00
2018-10-05T18:35:13.735Z,0.00
2018-10-05T18:36:13.733Z,0.00
2018-10-05T18:37:13.704Z,0.00
2018-10-05T18:38:13.686Z,0.00
2018-10-05T18:39:13.673Z,0.00
2018-10-05T18:40:13.654Z,0.00
2018-10-05T18:41:13.714Z,0.00
2018-10-05T18:42:13.620Z,0.00
2018-10-05T18:43:13.604Z,0.00
2018-10-05T18:44:13.634Z,0.00
2018-10-05T18:45:13.575Z,0.00
2018-10-05T18:46:13.567Z,0.00
2018-10-05T18:47:13.539Z,0.00
2018-10-05T18:48:13.519Z,0.00
2018-10-05T18:49:13.507Z,0.00
2018-10-05T18:50:13.488Z,0.00
2018-10-05T18:51:13.569Z,0.00
2018-10-05T18:52:13.463Z,0.00
2018-10-05T18:53:13.442Z,0.00
2018-10-05T18:54:13.425Z,0.00
2018-10-05T18:55:13.399Z,0.00
2018-10-05T18:56:13.385Z,0.00
2018-10-05T18:57:13.379Z,0.00
2018-10-05T18:58:13.356Z,0.00
2018-10-05T18:59:13.336Z,0.00
2018-10-05T19:00:13.378Z,0.00
2018-10-05T19:01:13.304Z,0.00
2018-10-05T19:02:13.293Z,0.00
2018-10-05T19:03:13.265Z,0.00
2018-10-05T19:04:13.254Z,0.00
2018-10-05T19:05:13.233Z,0.00
2018-10-05T19:06:13.217Z,0.00
2018-10-05T19:07:13.218Z,0.00
2018-10-05T19:08:13.183Z,0.00
2018-10-05T19:09:13.167Z,0.00
2018-10-05T19:10:13.148Z,0.00
2018-10-05T19:11:13.131Z,0.00
2018-10-05T19:12:13.113Z,0.00
2018-10-05T19:13:13.108Z,0.00
2018-10-05T19:14:13.082Z,0.00
2018-10-05T19:15:13.063Z,0.00
2018-10-05T19:16:13.064Z,0.00
2018-10-05T19:17:13.031Z,0.00
2018-10-05T19:18:13.025Z,0.00
2018-10-05T19:19:12.997Z,0.00
2018-10-05T19:20:12.976Z,0.00
2018-10-05T19:21:12.960Z,0.00
2018-10-05T19:22:12.943Z,0.00
2018-10-05T19:23:12.982Z,0.00
2018-10-05T19:24:12.910Z,0.00
2018-10-05T19:25:12.894Z,0.00
2018-10-05T19:26:12.913Z,0.00
2018-10-05T19:27:12.862Z,0.00
2018-10-05T19:28:12.840Z,0.00
2018-10-05T19:29:12.840Z,0.00
2018-10-05T19:30:12.813Z,0.00
2018-10-05T19:31:12.789Z,0.00
2018-10-05T19:32:12.775Z,0.00
2018-10-05T19:33:12.755Z,0.00
2018-10-05T19:34:12.754Z,0.00
2018-10-05T19:35:12.720Z,0.00
2018-10-05T19:36:12.712Z,0.00
2018-10-05T19:37:12.685Z,0.00
2018-10-05T19:38:12.667Z,0.00
2018-10-05T19:39:12.655Z,0.00
2018-10-05T19:40:12.645Z,0.00
2018-10-05T19:41:12.617Z,0.00
2018-10-05T19:42:12.600Z,0.00
2018-10-05T19:43:12.580Z,0.00
2018-10-05T19:44:12.562Z,0.00
2018-10-05T19:45:12.559Z,0.00
2018-10-05T19:46:12.529Z,0.00
2018-10-05T19:47:12.514Z,0.00
2018-10-05T19:48:12.494Z,0.00
2018-10-05T19:49:12.477Z,0.00
2018-10-05T19:50:12.479Z,0.00
2018-10-05T19:51:12.443Z,0.00
2018-10-05T19:52:12.433Z,0.00
2018-10-05T19:53:12.521Z,0.00
2018-10-05T19:54:12.422Z,0.00
2018-10-05T19:55:12.440Z,0.00
2018-10-05T19:56:12.393Z,0.00
2018-10-05T19:57:12.373Z,0.00
2018-10-05T19:58:12.318Z,0.00
2018-10-05T19:59:12.302Z,0.00
2018-10-05T20:00:12.282Z,0.00
2018-10-05T20:01:12.280Z,0.00
2018-10-05T20:02:12.345Z,0.00
2018-10-05T20:03:12.230Z,0.00
2018-10-05T20:04:12.213Z,0.00
2018-10-05T20:05:12.194Z,0.00
2018-10-05T20:06:12.197Z,0.00
2018-10-05T20:07:12.160Z,0.00
2018-10-05T20:08:12.139Z,0.00
2018-10-05T20:09:12.131Z,0.00
2018-10-05T20:10:12.109Z,0.00
2018-10-05T20:11:12.103Z,0.00
2018-10-05T20:12:12.071Z,0.00
2018-10-05T20:13:12.056Z,0.00
2018-10-05T20:14:12.034Z,0.00
2018-10-05T20:15:12.092Z,0.00
2018-10-05T20:16:12.020Z,0.00
2018-10-05T20:17:11.993Z,0.00
2018-10-05T20:18:12.108Z,0.00
2018-10-05T20:19:11.957Z,0.00
2018-10-05T20:20:11.929Z,0.00
2018-10-05T20:21:11.915Z,0.00
2018-10-05T20:22:11.909Z,0.00
2018-10-05T20:23:11.893Z,0.00
2018-10-05T20:24:11.868Z,0.00
2018-10-05T20:25:11.843Z,0.00
2018-10-05T20:26:11.824Z,0.00
2018-10-05T20:27:11.818Z,0.00
2018-10-05T20:28:11.792Z,0.00
2018-10-05T20:29:11.779Z,0.00
2018-10-05T20:30:11.753Z,0.00
2018-10-05T20:31:11.736Z,0.00
2018-10-05T20:32:11.716Z,0.00
2018-10-05T20:33:11.712Z,0.00
2018-10-05T20:34:11.687Z,0.00
2018-10-05T20:35:11.664Z,0.00
2018-10-05T20:36:11.860Z,0.00
2018-10-05T20:37:11.721Z,0.00
2018-10-05T20:38:11.621Z,0.00
2018-10-05T20:39:11.593Z,0.00
2018-10-05T20:40:11.577Z,0.00
2018-10-05T20:41:11.560Z,0.00
2018-10-05T20:42:11.536Z,0.00
2018-10-05T20:43:11.528Z,0.00
2018-10-05T20:44:11.501Z,0.00
2018-10-05T20:45:11.485Z,0.00
2018-10-05T20:46:11.466Z,0.00
2018-10-05T20:47:11.453Z,0.00
2018-10-05T20:48:11.440Z,0.00
2018-10-05T20:49:11.415Z,0.00
2018-10-05T20:50:11.394Z,0.00
2018-10-05T20:51:11.376Z,0.00
2018-10-05T20:52:11.355Z,0.00
2018-10-05T20:53:11.356Z,0.00
2018-10-05T20:54:11.323Z,0.00
2018-10-05T20:55:11.304Z,0.00
2018-10-05T20:56:11.286Z,0.00
2018-10-05T20:57:11.270Z,0.00
2018-10-05T20:58:11.265Z,0.00
2018-10-05T20:59:11.240Z,0.00
2018-10-05T21:00:11.211Z,0.00
2018-10-05T21:01:11.200Z,0.00
2018-10-05T21:02:11.181Z,0.00
2018-10-05T21:03:11.160Z,0.00
2018-10-05T21:04:11.232Z,0.00
2018-10-05T21:05:11.125Z,0.00
2018-10-05T21:06:11.108Z,0.00
2018-10-05T21:07:11.095Z,0.00
2018-10-05T21:08:11.073Z,0.00
2018-10-05T21:09:11.072Z,0.00
2018-10-05T21:10:11.035Z,0.00
2018-10-05T21:11:11.019Z,0.00
2018-10-05T21:12:10.996Z,0.00
2018-10-05T21:13:10.983Z,0.00
2018-10-05T21:14:10.967Z,0.00
2018-10-05T21:15:10.990Z,0.00
2018-10-05T21:16:10.923Z,0.00
2018-10-05T21:17:10.903Z,0.00
2018-10-05T21:18:10.887Z,0.00
2018-10-05T21:19:10.884Z,0.00
2018-10-05T21:20:10.882Z,0.00
2018-10-05T21:21:10.831Z,0.00
2018-10-05T21:22:10.815Z,0.00
2018-10-05T21:23:10.815Z,0.00
2018-10-05T21:24:10.776Z,0.00
2018-10-05T21:25:10.772Z,0.00
2018-10-05T21:26:10.740Z,0.00
2018-10-05T21:27:10.727Z,0.00
2018-10-05T21:28:10.703Z,0.00
2018-10-05T21:29:10.687Z,0.00
2018-10-05T21:30:10.687Z,0.00
2018-10-05T21:31:10.655Z,0.00
2018-10-05T21:32:10.631Z,0.00
2018-10-05T21:33:10.629Z,0.00
2018-10-05T21:34:10.594Z,0.00
2018-10-05T21:35:10.581Z,0.00
2018-10-05T21:36:10.572Z,0.00
2018-10-05T21:37:10.539Z,0.00
2018-10-05T21:38:10.521Z,0.00
2018-10-05T21:39:10.510Z,0.00
2018-10-05T21:40:10.483Z,0.00
2018-10-05T21:41:10.477Z,0.00
2018-10-05T21:42:10.519Z,0.00
2018-10-05T21:43:10.430Z,0.00
2018-10-05T21:44:10.413Z,0.00
2018-10-05T21:45:10.391Z,0.00
2018-10-05T21:46:10.393Z,0.00
2018-10-05T21:47:10.355Z,0.00
2018-10-05T21:48:10.337Z,0.00
2018-10-05T21:49:10.318Z,0.00
2018-10-05T21:50:10.295Z,0.00
2018-10-05T21:51:10.281Z,0.00
2018-10-05T21:52:10.280Z,0.00
2018-10-05T21:53:10.243Z,0.00
2018-10-05T21:54:10.223Z,0.00
2018-10-05T21:55:10.208Z,0.00
2018-10-05T21:56:10.191Z,0.00
2018-10-05T21:57:10.180Z,0.00
2018-10-05T21:58:10.158Z,0.00
2018-10-05T21:59:10.135Z,0.00
2018-10-05T22:00:10.114Z,0.00
2018-10-05T22:01:10.092Z,0.00
2018-10-05T22:02:10.099Z,0.00
2018-10-05T22:03:10.063Z,0.00
2018-10-05T22:04:10.040Z,0.00
2018-10-05T22:05:10.020Z,0.00
2018-10-05T22:06:10.003Z,0.00
2018-10-05T22:07:10.764Z,0.00
2018-10-05T22:08:09.966Z,0.00
2018-10-05T22:09:09.952Z,0.00
2018-10-05T22:10:09.933Z,0.00
2018-10-05T22:11:09.908Z,0.00
2018-10-05T22:12:09.893Z,0.00
2018-10-05T22:13:09.878Z,0.00
2018-10-05T22:14:09.853Z,0.00
2018-10-05T22:15:09.832Z,0.00
2018-10-05T22:16:09.823Z,0.00
2018-10-05T22:17:09.795Z,0.00
2018-10-05T22:18:09.784Z,0.00
2018-10-05T22:19:09.757Z,0.00
2018-10-05T22:20:09.751Z,0.00
2018-10-05T22:21:09.715Z,0.00
2018-10-05T22:22:09.699Z,0.00
2018-10-05T22:23:09.697Z,0.00
2018-10-05T22:24:09.675Z,0.00
2018-10-05T22:25:09.651Z,0.00
2018-10-05T22:26:09.623Z,0.00
2018-10-05T22:27:09.606Z,0.00
2018-10-05T22:28:09.594Z,0.00
2018-10-05T22:29:09.575Z,0.00
2018-10-05T22:30:17.758Z,0.00
2018-10-05T22:31:19.780Z,0.00
2018-10-05T22:32:18.819Z,0.00
2018-10-05T22:33:09.488Z,0.00
2018-10-05T22:34:18.362Z,0.00
2018-10-05T22:35:09.511Z,0.00
2018-10-05T22:36:09.438Z,0.00
2018-10-05T22:37:09.415Z,0.00
2018-10-05T22:38:09.394Z,0.00
2018-10-05T22:39:09.388Z,0.00
2018-10-05T22:40:09.353Z,0.00
2018-10-05T22:41:09.340Z,0.00
2018-10-05T22:42:09.318Z,0.00
2018-10-05T22:43:18.380Z,0.00
2018-10-05T22:44:09.297Z,0.00
2018-10-05T22:45:09.261Z,0.00
2018-10-05T22:46:09.240Z,0.00
2018-10-05T22:47:09.219Z,0.00
2018-10-05T22:48:09.199Z,0.00
2018-10-05T22:49:09.180Z,0.00
2018-10-05T22:50:09.174Z,0.00
2018-10-05T22:51:09.148Z,0.00
2018-10-05T22:52:09.128Z,0.00
2018-10-05T22:53:09.102Z,0.00
2018-10-05T22:54:09.085Z,0.00
2018-10-05T22:55:09.074Z,0.00
2018-10-05T22:56:09.045Z,0.00
2018-10-05T22:57:09.026Z,0.00
2018-10-05T22:58:09.009Z,0.00
2018-10-05T22:59:08.992Z,0.00
2018-10-05T23:00:08.982Z,0.00
2018-10-05T23:01:08.957Z,0.00
2018-10-05T23:02:08.930Z,0.00
2018-10-05T23:03:08.910Z,0.00
2018-10-05T23:04:08.897Z,0.00
2018-10-05T23:05:08.873Z,0.00
2018-10-05T23:06:08.862Z,0.00
2018-10-05T23:07:08.832Z,0.00
2018-10-05T23:08:08.811Z,0.00
2018-10-05T23:09:08.794Z,0.00
2018-10-05T23:10:08.777Z,0.00
2018-10-05T23:11:08.769Z,0.00
2018-10-05T23:12:08.739Z,0.00
2018-10-05T23:13:08.720Z,0.00
2018-10-05T23:14:08.701Z,0.00
2018-10-05T23:15:08.677Z,0.00
2018-10-05T23:16:08.672Z,0.00
2018-10-05T23:17:08.644Z,0.00
2018-10-05T23:18:08.624Z,0.00
2018-10-05T23:19:08.602Z,0.00
2018-10-05T23:20:08.583Z,0.00
2018-10-05T23:21:08.584Z,0.00
2018-10-05T23:22:08.544Z,0.00
2018-10-05T23:23:08.522Z,0.00
2018-10-05T23:24:08.503Z,0.00
2018-10-05T23:25:08.485Z,0.00
2018-10-05T23:26:08.466Z,0.00
2018-10-05T23:27:08.458Z,0.00
2018-10-05T23:28:08.429Z,0.00
2018-10-05T23:29:08.407Z,0.00
